sensor_id;sensor_type;location;lat;lon;timestamp;P1;durP1;ratioP1;P2;durP2;ratioP2
21339;SDS011;10828;47.064;15.422;2023-05-07T00:00:18;14.53;;;8.07;;
21339;SDS011;10828;47.064;15.422;2023-05-07T00:02:47;15.00;;;8.40;;
21339;SDS011;10828;47.064;15.422;2023-05-07T00:05:14;13.13;;;8.10;;
21339;SDS011;10828;47.064;15.422;2023-05-07T00:07:40;14.20;;;9.30;;
21339;SDS011;10828;47.064;15.422;2023-05-07T00:10:06;12.03;;;7.97;;
21339;SDS011;10828;47.064;15.422;2023-05-07T00:12:32;14.10;;;7.63;;
21339;SDS011;10828;47.064;15.422;2023-05-07T00:15:04;12.47;;;7.00;;
21339;SDS011;10828;47.064;15.422;2023-05-07T00:17:31;11.83;;;7.00;;
21339;SDS011;10828;47.064;15.422;2023-05-07T00:19:57;14.87;;;6.87;;
21339;SDS011;10828;47.064;15.422;2023-05-07T00:22:23;11.93;;;6.80;;
21339;SDS011;10828;47.064;15.422;2023-05-07T00:24:48;8.73;;;5.97;;
21339;SDS011;10828;47.064;15.422;2023-05-07T00:27:16;11.07;;;6.00;;
21339;SDS011;10828;47.064;15.422;2023-05-07T00:29:42;11.60;;;6.37;;
21339;SDS011;10828;47.064;15.422;2023-05-07T00:32:07;10.67;;;6.60;;
21339;SDS011;10828;47.064;15.422;2023-05-07T00:34:33;11.63;;;6.87;;
21339;SDS011;10828;47.064;15.422;2023-05-07T00:37:01;11.13;;;6.70;;
21339;SDS011;10828;47.064;15.422;2023-05-07T00:39:26;13.37;;;6.93;;
21339;SDS011;10828;47.064;15.422;2023-05-07T00:41:52;10.40;;;6.57;;
21339;SDS011;10828;47.064;15.422;2023-05-07T00:44:17;11.47;;;6.70;;
21339;SDS011;10828;47.064;15.422;2023-05-07T00:46:43;15.70;;;7.73;;
21339;SDS011;10828;47.064;15.422;2023-05-07T00:49:10;12.67;;;6.60;;
21339;SDS011;10828;47.064;15.422;2023-05-07T00:51:36;11.97;;;7.37;;
21339;SDS011;10828;47.064;15.422;2023-05-07T00:54:02;12.20;;;7.53;;
21339;SDS011;10828;47.064;15.422;2023-05-07T00:56:28;14.17;;;6.93;;
21339;SDS011;10828;47.064;15.422;2023-05-07T00:58:54;10.40;;;6.10;;
21339;SDS011;10828;47.064;15.422;2023-05-07T01:01:22;9.60;;;6.17;;
21339;SDS011;10828;47.064;15.422;2023-05-07T01:03:51;10.30;;;6.40;;
21339;SDS011;10828;47.064;15.422;2023-05-07T01:06:17;9.37;;;6.07;;
21339;SDS011;10828;47.064;15.422;2023-05-07T01:08:48;10.03;;;5.77;;
21339;SDS011;10828;47.064;15.422;2023-05-07T01:11:15;12.63;;;6.07;;
21339;SDS011;10828;47.064;15.422;2023-05-07T01:13:45;9.07;;;5.33;;
21339;SDS011;10828;47.064;15.422;2023-05-07T01:16:11;11.47;;;5.83;;
21339;SDS011;10828;47.064;15.422;2023-05-07T01:18:37;10.47;;;5.23;;
21339;SDS011;10828;47.064;15.422;2023-05-07T01:21:03;6.37;;;4.10;;
21339;SDS011;10828;47.064;15.422;2023-05-07T01:23:30;10.30;;;4.73;;
21339;SDS011;10828;47.064;15.422;2023-05-07T01:25:56;7.40;;;4.10;;
21339;SDS011;10828;47.064;15.422;2023-05-07T01:28:27;6.60;;;3.90;;
21339;SDS011;10828;47.064;15.422;2023-05-07T01:30:54;5.47;;;3.33;;
21339;SDS011;10828;47.064;15.422;2023-05-07T01:33:23;6.93;;;3.87;;
21339;SDS011;10828;47.064;15.422;2023-05-07T01:35:51;6.17;;;3.43;;
21339;SDS011;10828;47.064;15.422;2023-05-07T01:38:18;6.83;;;3.60;;
21339;SDS011;10828;47.064;15.422;2023-05-07T01:40:47;6.13;;;2.90;;
21339;SDS011;10828;47.064;15.422;2023-05-07T01:43:13;6.17;;;2.70;;
21339;SDS011;10828;47.064;15.422;2023-05-07T01:45:39;8.60;;;3.23;;
21339;SDS011;10828;47.064;15.422;2023-05-07T01:48:05;6.40;;;3.10;;
21339;SDS011;10828;47.064;15.422;2023-05-07T01:50:32;6.20;;;2.93;;
21339;SDS011;10828;47.064;15.422;2023-05-07T01:52:59;7.37;;;3.40;;
21339;SDS011;10828;47.064;15.422;2023-05-07T01:55:26;5.97;;;3.67;;
21339;SDS011;10828;47.064;15.422;2023-05-07T01:57:52;10.17;;;3.70;;
21339;SDS011;10828;47.064;15.422;2023-05-07T02:00:18;5.80;;;3.37;;
21339;SDS011;10828;47.064;15.422;2023-05-07T02:02:44;5.37;;;3.37;;
21339;SDS011;10828;47.064;15.422;2023-05-07T02:05:10;6.50;;;3.90;;
21339;SDS011;10828;47.064;15.422;2023-05-07T02:07:36;6.47;;;3.80;;
21339;SDS011;10828;47.064;15.422;2023-05-07T02:10:01;6.57;;;3.97;;
21339;SDS011;10828;47.064;15.422;2023-05-07T02:12:28;15.33;;;3.80;;
21339;SDS011;10828;47.064;15.422;2023-05-07T02:14:54;7.83;;;4.33;;
21339;SDS011;10828;47.064;15.422;2023-05-07T02:17:21;8.27;;;4.20;;
21339;SDS011;10828;47.064;15.422;2023-05-07T02:19:50;8.63;;;4.10;;
21339;SDS011;10828;47.064;15.422;2023-05-07T02:22:16;7.27;;;4.17;;
21339;SDS011;10828;47.064;15.422;2023-05-07T02:24:44;8.00;;;4.47;;
21339;SDS011;10828;47.064;15.422;2023-05-07T02:27:09;6.57;;;4.00;;
21339;SDS011;10828;47.064;15.422;2023-05-07T02:29:35;6.93;;;4.10;;
21339;SDS011;10828;47.064;15.422;2023-05-07T02:32:01;8.20;;;4.30;;
21339;SDS011;10828;47.064;15.422;2023-05-07T02:34:29;6.90;;;4.10;;
21339;SDS011;10828;47.064;15.422;2023-05-07T02:36:55;7.53;;;3.77;;
21339;SDS011;10828;47.064;15.422;2023-05-07T02:39:20;7.07;;;3.80;;
21339;SDS011;10828;47.064;15.422;2023-05-07T02:41:46;7.63;;;3.90;;
21339;SDS011;10828;47.064;15.422;2023-05-07T02:44:13;6.27;;;3.60;;
21339;SDS011;10828;47.064;15.422;2023-05-07T02:46:38;7.50;;;4.17;;
21339;SDS011;10828;47.064;15.422;2023-05-07T02:49:04;6.97;;;4.03;;
21339;SDS011;10828;47.064;15.422;2023-05-07T02:51:30;7.00;;;3.97;;
21339;SDS011;10828;47.064;15.422;2023-05-07T02:53:56;12.33;;;3.93;;
21339;SDS011;10828;47.064;15.422;2023-05-07T02:56:22;6.83;;;3.80;;
21339;SDS011;10828;47.064;15.422;2023-05-07T02:58:48;8.10;;;4.30;;
21339;SDS011;10828;47.064;15.422;2023-05-07T03:01:13;5.77;;;3.63;;
21339;SDS011;10828;47.064;15.422;2023-05-07T03:03:39;8.43;;;3.80;;
21339;SDS011;10828;47.064;15.422;2023-05-07T03:06:06;8.10;;;4.13;;
21339;SDS011;10828;47.064;15.422;2023-05-07T03:08:33;7.07;;;4.00;;
21339;SDS011;10828;47.064;15.422;2023-05-07T03:10:58;7.53;;;4.13;;
21339;SDS011;10828;47.064;15.422;2023-05-07T03:13:24;9.70;;;3.87;;
21339;SDS011;10828;47.064;15.422;2023-05-07T03:15:50;10.30;;;4.10;;
21339;SDS011;10828;47.064;15.422;2023-05-07T03:18:16;8.50;;;4.30;;
21339;SDS011;10828;47.064;15.422;2023-05-07T03:20:41;11.93;;;4.87;;
21339;SDS011;10828;47.064;15.422;2023-05-07T03:23:07;8.43;;;5.07;;
21339;SDS011;10828;47.064;15.422;2023-05-07T03:25:33;7.33;;;4.57;;
21339;SDS011;10828;47.064;15.422;2023-05-07T03:28:02;10.70;;;5.10;;
21339;SDS011;10828;47.064;15.422;2023-05-07T03:30:27;7.43;;;4.47;;
21339;SDS011;10828;47.064;15.422;2023-05-07T03:32:53;6.80;;;4.27;;
21339;SDS011;10828;47.064;15.422;2023-05-07T03:35:19;9.73;;;4.63;;
21339;SDS011;10828;47.064;15.422;2023-05-07T03:37:44;10.43;;;4.33;;
21339;SDS011;10828;47.064;15.422;2023-05-07T03:40:10;10.00;;;5.60;;
21339;SDS011;10828;47.064;15.422;2023-05-07T03:42:37;9.43;;;5.20;;
21339;SDS011;10828;47.064;15.422;2023-05-07T03:45:04;12.23;;;6.00;;
21339;SDS011;10828;47.064;15.422;2023-05-07T03:47:31;12.23;;;6.13;;
21339;SDS011;10828;47.064;15.422;2023-05-07T03:49:57;9.50;;;6.20;;
21339;SDS011;10828;47.064;15.422;2023-05-07T03:52:24;11.80;;;5.33;;
21339;SDS011;10828;47.064;15.422;2023-05-07T03:54:52;11.77;;;6.60;;
21339;SDS011;10828;47.064;15.422;2023-05-07T03:57:18;13.60;;;7.20;;
21339;SDS011;10828;47.064;15.422;2023-05-07T03:59:44;8.50;;;5.57;;
21339;SDS011;10828;47.064;15.422;2023-05-07T04:02:10;13.87;;;7.60;;
21339;SDS011;10828;47.064;15.422;2023-05-07T04:04:35;16.70;;;8.17;;
21339;SDS011;10828;47.064;15.422;2023-05-07T04:07:01;16.63;;;7.00;;
21339;SDS011;10828;47.064;15.422;2023-05-07T04:09:29;10.57;;;5.97;;
21339;SDS011;10828;47.064;15.422;2023-05-07T04:11:58;10.07;;;5.27;;
21339;SDS011;10828;47.064;15.422;2023-05-07T04:14:25;7.07;;;4.33;;
21339;SDS011;10828;47.064;15.422;2023-05-07T04:16:58;7.67;;;4.30;;
21339;SDS011;10828;47.064;15.422;2023-05-07T04:19:25;8.97;;;3.60;;
21339;SDS011;10828;47.064;15.422;2023-05-07T04:21:51;6.77;;;4.60;;
21339;SDS011;10828;47.064;15.422;2023-05-07T04:26:46;10.10;;;5.07;;
21339;SDS011;10828;47.064;15.422;2023-05-07T04:29:12;8.57;;;3.83;;
21339;SDS011;10828;47.064;15.422;2023-05-07T04:31:38;6.37;;;3.87;;
21339;SDS011;10828;47.064;15.422;2023-05-07T04:34:03;9.10;;;3.47;;
21339;SDS011;10828;47.064;15.422;2023-05-07T04:36:30;10.47;;;3.97;;
21339;SDS011;10828;47.064;15.422;2023-05-07T04:39:05;6.53;;;3.90;;
21339;SDS011;10828;47.064;15.422;2023-05-07T04:41:31;8.87;;;4.00;;
21339;SDS011;10828;47.064;15.422;2023-05-07T04:43:57;9.53;;;4.00;;
21339;SDS011;10828;47.064;15.422;2023-05-07T04:46:24;11.43;;;4.20;;
21339;SDS011;10828;47.064;15.422;2023-05-07T04:48:49;7.00;;;4.07;;
21339;SDS011;10828;47.064;15.422;2023-05-07T04:51:15;7.87;;;3.70;;
21339;SDS011;10828;47.064;15.422;2023-05-07T04:53:42;7.97;;;4.23;;
21339;SDS011;10828;47.064;15.422;2023-05-07T04:56:08;6.53;;;3.87;;
21339;SDS011;10828;47.064;15.422;2023-05-07T04:58:33;7.87;;;4.10;;
21339;SDS011;10828;47.064;15.422;2023-05-07T05:00:59;10.80;;;3.57;;
21339;SDS011;10828;47.064;15.422;2023-05-07T05:03:26;6.73;;;3.93;;
21339;SDS011;10828;47.064;15.422;2023-05-07T05:05:52;8.43;;;4.20;;
21339;SDS011;10828;47.064;15.422;2023-05-07T05:08:18;9.07;;;3.90;;
21339;SDS011;10828;47.064;15.422;2023-05-07T05:10:43;7.90;;;4.20;;
21339;SDS011;10828;47.064;15.422;2023-05-07T05:13:09;9.70;;;4.10;;
21339;SDS011;10828;47.064;15.422;2023-05-07T05:15:37;8.33;;;3.90;;
21339;SDS011;10828;47.064;15.422;2023-05-07T05:18:03;7.20;;;4.17;;
21339;SDS011;10828;47.064;15.422;2023-05-07T05:20:29;9.27;;;4.10;;
21339;SDS011;10828;47.064;15.422;2023-05-07T05:22:55;8.30;;;4.30;;
21339;SDS011;10828;47.064;15.422;2023-05-07T05:25:21;8.77;;;3.97;;
21339;SDS011;10828;47.064;15.422;2023-05-07T05:27:46;8.10;;;3.73;;
21339;SDS011;10828;47.064;15.422;2023-05-07T05:30:12;7.17;;;3.60;;
21339;SDS011;10828;47.064;15.422;2023-05-07T05:32:39;9.63;;;4.30;;
21339;SDS011;10828;47.064;15.422;2023-05-07T05:35:05;7.87;;;4.23;;
21339;SDS011;10828;47.064;15.422;2023-05-07T05:37:31;9.30;;;4.13;;
21339;SDS011;10828;47.064;15.422;2023-05-07T05:39:56;18.00;;;4.67;;
21339;SDS011;10828;47.064;15.422;2023-05-07T05:42:22;7.33;;;4.37;;
21339;SDS011;10828;47.064;15.422;2023-05-07T05:44:48;9.53;;;4.63;;
21339;SDS011;10828;47.064;15.422;2023-05-07T05:47:14;9.37;;;4.27;;
21339;SDS011;10828;47.064;15.422;2023-05-07T05:49:39;6.80;;;4.00;;
21339;SDS011;10828;47.064;15.422;2023-05-07T05:52:05;6.90;;;3.90;;
21339;SDS011;10828;47.064;15.422;2023-05-07T05:54:32;6.00;;;3.40;;
21339;SDS011;10828;47.064;15.422;2023-05-07T05:56:57;7.67;;;3.47;;
21339;SDS011;10828;47.064;15.422;2023-05-07T05:59:27;6.30;;;3.63;;
21339;SDS011;10828;47.064;15.422;2023-05-07T06:01:56;8.20;;;3.60;;
21339;SDS011;10828;47.064;15.422;2023-05-07T06:04:21;6.47;;;3.40;;
21339;SDS011;10828;47.064;15.422;2023-05-07T06:06:48;6.47;;;3.60;;
21339;SDS011;10828;47.064;15.422;2023-05-07T06:09:14;8.13;;;3.83;;
21339;SDS011;10828;47.064;15.422;2023-05-07T06:11:43;6.13;;;3.50;;
21339;SDS011;10828;47.064;15.422;2023-05-07T06:14:08;6.47;;;3.50;;
21339;SDS011;10828;47.064;15.422;2023-05-07T06:16:34;8.30;;;3.83;;
21339;SDS011;10828;47.064;15.422;2023-05-07T06:19:00;6.20;;;3.60;;
21339;SDS011;10828;47.064;15.422;2023-05-07T06:21:27;9.10;;;3.83;;
21339;SDS011;10828;47.064;15.422;2023-05-07T06:23:52;11.57;;;4.50;;
21339;SDS011;10828;47.064;15.422;2023-05-07T06:26:20;7.67;;;3.50;;
21339;SDS011;10828;47.064;15.422;2023-05-07T06:28:47;6.13;;;3.63;;
21339;SDS011;10828;47.064;15.422;2023-05-07T06:31:19;6.67;;;3.53;;
21339;SDS011;10828;47.064;15.422;2023-05-07T06:33:50;9.97;;;3.43;;
21339;SDS011;10828;47.064;15.422;2023-05-07T06:36:18;6.80;;;3.43;;
21339;SDS011;10828;47.064;15.422;2023-05-07T06:38:43;8.63;;;3.70;;
21339;SDS011;10828;47.064;15.422;2023-05-07T06:41:09;7.47;;;3.20;;
21339;SDS011;10828;47.064;15.422;2023-05-07T06:43:35;8.60;;;3.57;;
21339;SDS011;10828;47.064;15.422;2023-05-07T06:46:02;6.00;;;3.60;;
21339;SDS011;10828;47.064;15.422;2023-05-07T06:48:28;5.73;;;3.30;;
21339;SDS011;10828;47.064;15.422;2023-05-07T06:50:54;7.53;;;3.60;;
21339;SDS011;10828;47.064;15.422;2023-05-07T06:53:22;9.37;;;3.33;;
21339;SDS011;10828;47.064;15.422;2023-05-07T06:55:48;5.60;;;3.10;;
21339;SDS011;10828;47.064;15.422;2023-05-07T06:58:14;5.53;;;2.80;;
21339;SDS011;10828;47.064;15.422;2023-05-07T07:00:39;6.07;;;2.83;;
21339;SDS011;10828;47.064;15.422;2023-05-07T07:03:06;6.40;;;3.63;;
21339;SDS011;10828;47.064;15.422;2023-05-07T07:05:31;8.73;;;3.23;;
21339;SDS011;10828;47.064;15.422;2023-05-07T07:07:57;7.83;;;3.30;;
21339;SDS011;10828;47.064;15.422;2023-05-07T07:10:24;5.33;;;2.80;;
21339;SDS011;10828;47.064;15.422;2023-05-07T07:12:50;7.60;;;3.20;;
21339;SDS011;10828;47.064;15.422;2023-05-07T07:15:17;5.53;;;3.10;;
21339;SDS011;10828;47.064;15.422;2023-05-07T07:17:43;4.50;;;3.10;;
21339;SDS011;10828;47.064;15.422;2023-05-07T07:20:09;5.73;;;3.17;;
21339;SDS011;10828;47.064;15.422;2023-05-07T07:22:35;5.50;;;3.23;;
21339;SDS011;10828;47.064;15.422;2023-05-07T07:25:10;7.10;;;3.07;;
21339;SDS011;10828;47.064;15.422;2023-05-07T07:27:39;7.47;;;3.80;;
21339;SDS011;10828;47.064;15.422;2023-05-07T07:32:42;7.07;;;3.67;;
21339;SDS011;10828;47.064;15.422;2023-05-07T07:35:26;7.17;;;3.87;;
21339;SDS011;10828;47.064;15.422;2023-05-07T07:38:06;7.87;;;3.43;;
21339;SDS011;10828;47.064;15.422;2023-05-07T07:40:38;8.27;;;3.63;;
21339;SDS011;10828;47.064;15.422;2023-05-07T07:43:05;9.07;;;3.60;;
21339;SDS011;10828;47.064;15.422;2023-05-07T07:45:48;6.83;;;3.50;;
21339;SDS011;10828;47.064;15.422;2023-05-07T07:48:23;6.63;;;3.37;;
21339;SDS011;10828;47.064;15.422;2023-05-07T07:50:57;8.80;;;4.17;;
21339;SDS011;10828;47.064;15.422;2023-05-07T07:53:56;8.43;;;3.40;;
21339;SDS011;10828;47.064;15.422;2023-05-07T07:56:31;8.90;;;3.60;;
21339;SDS011;10828;47.064;15.422;2023-05-07T08:02:25;9.83;;;4.20;;
21339;SDS011;10828;47.064;15.422;2023-05-07T08:04:53;5.90;;;3.80;;
21339;SDS011;10828;47.064;15.422;2023-05-07T08:07:20;6.33;;;3.97;;
21339;SDS011;10828;47.064;15.422;2023-05-07T08:09:48;7.37;;;4.00;;
21339;SDS011;10828;47.064;15.422;2023-05-07T08:18:45;6.87;;;3.80;;
21339;SDS011;10828;47.064;15.422;2023-05-07T08:21:30;9.57;;;4.00;;
21339;SDS011;10828;47.064;15.422;2023-05-07T11:46:04;3.37;;;2.03;;
21339;SDS011;10828;47.064;15.422;2023-05-07T11:48:36;4.37;;;1.83;;
21339;SDS011;10828;47.064;15.422;2023-05-07T11:57:19;5.80;;;2.30;;
21339;SDS011;10828;47.064;15.422;2023-05-07T11:59:45;4.33;;;2.10;;
21339;SDS011;10828;47.064;15.422;2023-05-07T12:02:17;3.63;;;1.90;;
21339;SDS011;10828;47.064;15.422;2023-05-07T12:04:44;3.17;;;2.00;;
21339;SDS011;10828;47.064;15.422;2023-05-07T12:07:12;5.87;;;2.30;;
21339;SDS011;10828;47.064;15.422;2023-05-07T12:09:40;4.03;;;2.20;;
21339;SDS011;10828;47.064;15.422;2023-05-07T12:12:08;4.67;;;2.40;;
21339;SDS011;10828;47.064;15.422;2023-05-07T13:28:12;5.07;;;1.83;;
21339;SDS011;10828;47.064;15.422;2023-05-07T13:31:04;6.63;;;2.50;;
21339;SDS011;10828;47.064;15.422;2023-05-07T13:33:33;8.60;;;2.47;;
21339;SDS011;10828;47.064;15.422;2023-05-07T13:36:21;6.27;;;2.47;;
21339;SDS011;10828;47.064;15.422;2023-05-07T13:38:50;10.23;;;3.87;;
21339;SDS011;10828;47.064;15.422;2023-05-07T13:41:28;10.30;;;4.30;;
21339;SDS011;10828;47.064;15.422;2023-05-07T13:43:58;10.27;;;5.57;;
21339;SDS011;10828;47.064;15.422;2023-05-07T13:46:25;14.00;;;6.13;;
21339;SDS011;10828;47.064;15.422;2023-05-07T13:48:53;15.10;;;8.77;;
21339;SDS011;10828;47.064;15.422;2023-05-07T13:51:25;11.03;;;5.67;;
21339;SDS011;10828;47.064;15.422;2023-05-07T13:53:52;11.57;;;6.70;;
21339;SDS011;10828;47.064;15.422;2023-05-07T13:56:20;15.53;;;6.33;;
21339;SDS011;10828;47.064;15.422;2023-05-07T13:58:59;13.13;;;6.63;;
21339;SDS011;10828;47.064;15.422;2023-05-07T14:01:26;10.63;;;6.33;;
21339;SDS011;10828;47.064;15.422;2023-05-07T14:03:53;13.73;;;7.50;;
21339;SDS011;10828;47.064;15.422;2023-05-07T14:06:27;11.47;;;7.23;;
21339;SDS011;10828;47.064;15.422;2023-05-07T14:08:57;14.97;;;7.60;;
21339;SDS011;10828;47.064;15.422;2023-05-07T14:11:24;13.83;;;7.60;;
21339;SDS011;10828;47.064;15.422;2023-05-07T16:56:22;15.90;;;8.60;;
21339;SDS011;10828;47.064;15.422;2023-05-07T16:58:48;14.20;;;7.67;;
21339;SDS011;10828;47.064;15.422;2023-05-07T17:01:15;20.63;;;8.47;;
21339;SDS011;10828;47.064;15.422;2023-05-07T17:03:49;12.80;;;7.97;;
21339;SDS011;10828;47.064;15.422;2023-05-07T17:06:16;14.17;;;8.63;;
21339;SDS011;10828;47.064;15.422;2023-05-07T17:08:42;15.63;;;8.90;;
21339;SDS011;10828;47.064;15.422;2023-05-07T17:11:11;17.40;;;10.03;;
21339;SDS011;10828;47.064;15.422;2023-05-07T17:13:36;15.13;;;9.20;;
21339;SDS011;10828;47.064;15.422;2023-05-07T17:16:02;21.03;;;9.50;;
21339;SDS011;10828;47.064;15.422;2023-05-07T17:18:30;12.47;;;8.07;;
21339;SDS011;10828;47.064;15.422;2023-05-07T17:20:57;15.77;;;10.17;;
21339;SDS011;10828;47.064;15.422;2023-05-07T17:23:24;16.67;;;10.47;;
21339;SDS011;10828;47.064;15.422;2023-05-07T17:25:50;16.97;;;10.17;;
21339;SDS011;10828;47.064;15.422;2023-05-07T17:28:16;15.80;;;10.63;;
21339;SDS011;10828;47.064;15.422;2023-05-07T17:30:41;18.67;;;11.03;;
21339;SDS011;10828;47.064;15.422;2023-05-07T17:33:07;18.43;;;10.57;;
21339;SDS011;10828;47.064;15.422;2023-05-07T17:35:34;18.53;;;11.50;;
21339;SDS011;10828;47.064;15.422;2023-05-07T17:38:02;18.97;;;10.73;;
21339;SDS011;10828;47.064;15.422;2023-05-07T17:40:29;19.13;;;11.30;;
21339;SDS011;10828;47.064;15.422;2023-05-07T17:42:55;23.00;;;12.10;;
21339;SDS011;10828;47.064;15.422;2023-05-07T17:45:22;19.40;;;11.43;;
21339;SDS011;10828;47.064;15.422;2023-05-07T17:47:48;16.90;;;10.87;;
21339;SDS011;10828;47.064;15.422;2023-05-07T17:50:13;16.60;;;11.17;;
21339;SDS011;10828;47.064;15.422;2023-05-07T17:52:40;17.73;;;11.37;;
21339;SDS011;10828;47.064;15.422;2023-05-07T17:55:06;19.00;;;11.53;;
21339;SDS011;10828;47.064;15.422;2023-05-07T17:57:32;16.93;;;10.47;;
21339;SDS011;10828;47.064;15.422;2023-05-07T18:00:04;20.43;;;11.10;;
21339;SDS011;10828;47.064;15.422;2023-05-07T18:02:34;15.87;;;10.80;;
21339;SDS011;10828;47.064;15.422;2023-05-07T18:05:04;17.30;;;11.20;;
21339;SDS011;10828;47.064;15.422;2023-05-07T18:07:40;19.20;;;11.83;;
21339;SDS011;10828;47.064;15.422;2023-05-07T18:10:08;19.43;;;11.60;;
21339;SDS011;10828;47.064;15.422;2023-05-07T18:12:35;24.83;;;12.60;;
21339;SDS011;10828;47.064;15.422;2023-05-07T18:17:33;21.50;;;12.97;;
21339;SDS011;10828;47.064;15.422;2023-05-07T18:19:59;21.50;;;12.80;;
21339;SDS011;10828;47.064;15.422;2023-05-07T18:22:27;19.43;;;12.23;;
21339;SDS011;10828;47.064;15.422;2023-05-07T18:27:29;21.87;;;14.00;;
21339;SDS011;10828;47.064;15.422;2023-05-07T18:29:57;36.17;;;19.00;;
21339;SDS011;10828;47.064;15.422;2023-05-07T18:32:23;19.17;;;12.63;;
21339;SDS011;10828;47.064;15.422;2023-05-07T18:34:50;21.97;;;12.53;;
21339;SDS011;10828;47.064;15.422;2023-05-07T18:37:20;33.63;;;20.20;;
21339;SDS011;10828;47.064;15.422;2023-05-07T18:39:58;22.30;;;12.63;;
21339;SDS011;10828;47.064;15.422;2023-05-07T18:42:36;20.77;;;12.63;;
21339;SDS011;10828;47.064;15.422;2023-05-07T18:45:03;19.73;;;12.23;;
21339;SDS011;10828;47.064;15.422;2023-05-07T18:47:38;27.87;;;13.63;;
21339;SDS011;10828;47.064;15.422;2023-05-07T18:50:18;22.13;;;12.90;;
21339;SDS011;10828;47.064;15.422;2023-05-07T18:52:58;21.77;;;12.83;;
21339;SDS011;10828;47.064;15.422;2023-05-07T19:34:34;28.77;;;16.30;;
21339;SDS011;10828;47.064;15.422;2023-05-07T19:37:23;28.63;;;15.47;;
21339;SDS011;10828;47.064;15.422;2023-05-07T19:40:02;27.67;;;15.90;;
21339;SDS011;10828;47.064;15.422;2023-05-07T19:42:37;27.53;;;15.77;;
21339;SDS011;10828;47.064;15.422;2023-05-07T19:45:06;23.97;;;14.93;;
21339;SDS011;10828;47.064;15.422;2023-05-07T19:47:39;24.87;;;14.10;;
21339;SDS011;10828;47.064;15.422;2023-05-07T19:50:06;25.50;;;15.57;;
21339;SDS011;10828;47.064;15.422;2023-05-07T19:55:14;34.43;;;16.23;;
21339;SDS011;10828;47.064;15.422;2023-05-07T19:57:57;26.97;;;15.90;;
21339;SDS011;10828;47.064;15.422;2023-05-07T20:00:29;29.63;;;16.17;;
21339;SDS011;10828;47.064;15.422;2023-05-07T20:02:58;33.43;;;16.87;;
21339;SDS011;10828;47.064;15.422;2023-05-07T20:05:30;30.13;;;17.07;;
21339;SDS011;10828;47.064;15.422;2023-05-07T20:31:17;23.10;;;13.97;;
21339;SDS011;10828;47.064;15.422;2023-05-07T20:33:45;26.80;;;14.40;;
21339;SDS011;10828;47.064;15.422;2023-05-07T20:36:11;70.70;;;36.43;;
21339;SDS011;10828;47.064;15.422;2023-05-07T20:38:51;21.67;;;13.13;;
21339;SDS011;10828;47.064;15.422;2023-05-07T20:43:52;22.77;;;11.77;;
21339;SDS011;10828;47.064;15.422;2023-05-07T20:46:24;20.03;;;12.23;;
21339;SDS011;10828;47.064;15.422;2023-05-07T20:48:55;21.80;;;12.30;;
21339;SDS011;10828;47.064;15.422;2023-05-07T20:51:29;24.10;;;12.40;;
21339;SDS011;10828;47.064;15.422;2023-05-07T20:54:01;21.00;;;11.70;;
21339;SDS011;10828;47.064;15.422;2023-05-07T20:56:30;21.13;;;11.57;;
21339;SDS011;10828;47.064;15.422;2023-05-07T20:58:57;20.67;;;12.43;;
21339;SDS011;10828;47.064;15.422;2023-05-07T21:01:24;19.90;;;11.83;;
21339;SDS011;10828;47.064;15.422;2023-05-07T21:03:54;21.10;;;11.63;;
21339;SDS011;10828;47.064;15.422;2023-05-07T21:06:21;19.20;;;12.20;;
21339;SDS011;10828;47.064;15.422;2023-05-07T21:08:49;20.20;;;12.40;;
21339;SDS011;10828;47.064;15.422;2023-05-07T21:11:28;18.30;;;11.60;;
21339;SDS011;10828;47.064;15.422;2023-05-07T21:13:54;23.33;;;12.67;;
21339;SDS011;10828;47.064;15.422;2023-05-07T21:16:22;20.83;;;12.63;;
21339;SDS011;10828;47.064;15.422;2023-05-07T21:18:49;23.57;;;12.67;;
21339;SDS011;10828;47.064;15.422;2023-05-07T21:21:22;20.30;;;12.20;;
21339;SDS011;10828;47.064;15.422;2023-05-07T21:23:56;25.37;;;12.77;;
21339;SDS011;10828;47.064;15.422;2023-05-07T21:26:24;21.47;;;12.40;;
21339;SDS011;10828;47.064;15.422;2023-05-07T21:28:51;29.87;;;13.63;;
21339;SDS011;10828;47.064;15.422;2023-05-07T21:31:18;21.73;;;12.30;;
21339;SDS011;10828;47.064;15.422;2023-05-07T21:33:46;24.77;;;15.40;;
21339;SDS011;10828;47.064;15.422;2023-05-07T21:36:13;19.20;;;12.73;;
21339;SDS011;10828;47.064;15.422;2023-05-07T21:38:50;25.67;;;13.57;;
21339;SDS011;10828;47.064;15.422;2023-05-07T21:41:26;20.83;;;12.10;;
21339;SDS011;10828;47.064;15.422;2023-05-07T21:44:03;22.13;;;12.93;;
21339;SDS011;10828;47.064;15.422;2023-05-07T21:46:30;22.83;;;12.43;;
21339;SDS011;10828;47.064;15.422;2023-05-07T21:48:59;23.20;;;12.13;;
21339;SDS011;10828;47.064;15.422;2023-05-07T21:51:26;21.03;;;11.93;;
21339;SDS011;10828;47.064;15.422;2023-05-07T21:53:53;21.97;;;12.33;;
21339;SDS011;10828;47.064;15.422;2023-05-07T21:56:21;21.50;;;12.37;;
21339;SDS011;10828;47.064;15.422;2023-05-07T21:58:48;21.30;;;12.27;;
21339;SDS011;10828;47.064;15.422;2023-05-07T22:01:15;21.23;;;12.63;;
21339;SDS011;10828;47.064;15.422;2023-05-07T22:03:50;21.10;;;12.90;;
21339;SDS011;10828;47.064;15.422;2023-05-07T22:06:17;20.13;;;13.10;;
21339;SDS011;10828;47.064;15.422;2023-05-07T22:08:47;23.80;;;13.40;;
21339;SDS011;10828;47.064;15.422;2023-05-07T22:11:21;23.50;;;12.73;;
21339;SDS011;10828;47.064;15.422;2023-05-07T22:13:48;23.93;;;13.07;;
21339;SDS011;10828;47.064;15.422;2023-05-07T22:16:16;22.00;;;13.17;;
21339;SDS011;10828;47.064;15.422;2023-05-07T22:18:44;23.43;;;13.23;;
21339;SDS011;10828;47.064;15.422;2023-05-07T22:21:15;20.97;;;12.70;;
21339;SDS011;10828;47.064;15.422;2023-05-07T22:23:43;17.53;;;11.10;;
21339;SDS011;10828;47.064;15.422;2023-05-07T22:26:15;21.33;;;12.23;;
21339;SDS011;10828;47.064;15.422;2023-05-07T22:28:43;17.23;;;10.40;;
21339;SDS011;10828;47.064;15.422;2023-05-07T22:31:11;16.80;;;9.87;;
21339;SDS011;10828;47.064;15.422;2023-05-07T22:33:37;15.47;;;9.70;;
21339;SDS011;10828;47.064;15.422;2023-05-07T22:36:05;16.63;;;9.10;;
21339;SDS011;10828;47.064;15.422;2023-05-07T22:38:39;15.30;;;9.40;;
21339;SDS011;10828;47.064;15.422;2023-05-07T22:41:06;14.07;;;8.63;;
21339;SDS011;10828;47.064;15.422;2023-05-07T22:43:33;15.90;;;9.23;;
21339;SDS011;10828;47.064;15.422;2023-05-07T22:45:59;15.80;;;9.50;;
21339;SDS011;10828;47.064;15.422;2023-05-07T22:48:26;14.03;;;8.80;;
21339;SDS011;10828;47.064;15.422;2023-05-07T22:50:57;14.67;;;9.17;;
21339;SDS011;10828;47.064;15.422;2023-05-07T22:53:22;15.90;;;8.80;;
21339;SDS011;10828;47.064;15.422;2023-05-07T22:55:49;13.00;;;8.77;;
21339;SDS011;10828;47.064;15.422;2023-05-07T22:58:16;14.70;;;8.97;;
21339;SDS011;10828;47.064;15.422;2023-05-07T23:00:44;16.17;;;8.73;;
21339;SDS011;10828;47.064;15.422;2023-05-07T23:03:10;14.83;;;9.27;;
21339;SDS011;10828;47.064;15.422;2023-05-07T23:05:37;17.27;;;9.73;;
21339;SDS011;10828;47.064;15.422;2023-05-07T23:08:02;17.03;;;9.50;;
21339;SDS011;10828;47.064;15.422;2023-05-07T23:10:29;15.77;;;9.37;;
21339;SDS011;10828;47.064;15.422;2023-05-07T23:13:00;14.57;;;9.27;;
21339;SDS011;10828;47.064;15.422;2023-05-07T23:15:31;15.23;;;9.73;;
21339;SDS011;10828;47.064;15.422;2023-05-07T23:17:57;15.23;;;9.20;;
21339;SDS011;10828;47.064;15.422;2023-05-07T23:20:23;14.43;;;9.17;;